sensor_id;sensor_type;location;lat;lon;timestamp;P1;durP1;ratioP1;P2;durP2;ratioP2
10653;SDS011;5375;51.250;6.776;2023-10-08T00:01:07;2.33;;;1.88;;
10653;SDS011;5375;51.250;6.776;2023-10-08T00:03:36;4.05;;;2.60;;
10653;SDS011;5375;51.250;6.776;2023-10-08T00:06:03;4.00;;;2.22;;
10653;SDS011;5375;51.250;6.776;2023-10-08T00:08:37;4.28;;;2.40;;
10653;SDS011;5375;51.250;6.776;2023-10-08T00:11:03;3.95;;;2.33;;
10653;SDS011;5375;51.250;6.776;2023-10-08T00:13:35;3.67;;;2.30;;
10653;SDS011;5375;51.250;6.776;2023-10-08T00:16:08;5.15;;;2.53;;
10653;SDS011;5375;51.250;6.776;2023-10-08T00:18:35;4.82;;;2.60;;
10653;SDS011;5375;51.250;6.776;2023-10-08T00:21:02;3.22;;;2.33;;
10653;SDS011;5375;51.250;6.776;2023-10-08T00:23:40;4.00;;;2.40;;
10653;SDS011;5375;51.250;6.776;2023-10-08T00:26:14;4.22;;;2.38;;
10653;SDS011;5375;51.250;6.776;2023-10-08T00:28:44;4.25;;;2.53;;
10653;SDS011;5375;51.250;6.776;2023-10-08T00:31:13;4.00;;;2.40;;
10653;SDS011;5375;51.250;6.776;2023-10-08T00:33:42;3.25;;;2.20;;
10653;SDS011;5375;51.250;6.776;2023-10-08T00:36:09;4.35;;;2.72;;
10653;SDS011;5375;51.250;6.776;2023-10-08T00:38:49;3.25;;;2.40;;
10653;SDS011;5375;51.250;6.776;2023-10-08T00:41:18;3.83;;;2.35;;
10653;SDS011;5375;51.250;6.776;2023-10-08T00:43:47;3.75;;;2.42;;
10653;SDS011;5375;51.250;6.776;2023-10-08T00:46:13;3.45;;;2.40;;
10653;SDS011;5375;51.250;6.776;2023-10-08T00:48:52;4.90;;;2.78;;
10653;SDS011;5375;51.250;6.776;2023-10-08T00:51:24;4.00;;;2.30;;
10653;SDS011;5375;51.250;6.776;2023-10-08T00:53:52;4.72;;;2.45;;
10653;SDS011;5375;51.250;6.776;2023-10-08T00:56:18;3.75;;;2.28;;
10653;SDS011;5375;51.250;6.776;2023-10-08T00:58:45;3.38;;;2.40;;
10653;SDS011;5375;51.250;6.776;2023-10-08T01:01:14;4.45;;;2.38;;
10653;SDS011;5375;51.250;6.776;2023-10-08T01:03:41;4.65;;;2.35;;
10653;SDS011;5375;51.250;6.776;2023-10-08T01:06:12;4.65;;;2.65;;
10653;SDS011;5375;51.250;6.776;2023-10-08T01:08:43;5.25;;;2.50;;
10653;SDS011;5375;51.250;6.776;2023-10-08T01:13:45;4.07;;;2.45;;
10653;SDS011;5375;51.250;6.776;2023-10-08T01:16:11;4.05;;;2.50;;
10653;SDS011;5375;51.250;6.776;2023-10-08T01:18:39;4.28;;;2.45;;
10653;SDS011;5375;51.250;6.776;2023-10-08T01:21:14;3.95;;;2.50;;
10653;SDS011;5375;51.250;6.776;2023-10-08T01:23:56;4.18;;;2.40;;
10653;SDS011;5375;51.250;6.776;2023-10-08T01:26:25;3.17;;;2.38;;
10653;SDS011;5375;51.250;6.776;2023-10-08T01:28:54;5.53;;;2.70;;
10653;SDS011;5375;51.250;6.776;2023-10-08T01:31:20;3.92;;;2.40;;
10653;SDS011;5375;51.250;6.776;2023-10-08T01:33:46;3.55;;;2.30;;
10653;SDS011;5375;51.250;6.776;2023-10-08T01:36:14;5.20;;;2.53;;
10653;SDS011;5375;51.250;6.776;2023-10-08T01:38:40;4.72;;;2.35;;
10653;SDS011;5375;51.250;6.776;2023-10-08T01:41:07;5.72;;;2.90;;
10653;SDS011;5375;51.250;6.776;2023-10-08T01:43:44;3.80;;;2.60;;
10653;SDS011;5375;51.250;6.776;2023-10-08T01:46:10;4.10;;;2.53;;
10653;SDS011;5375;51.250;6.776;2023-10-08T01:48:37;4.18;;;2.70;;
10653;SDS011;5375;51.250;6.776;2023-10-08T01:51:04;4.65;;;2.72;;
10653;SDS011;5375;51.250;6.776;2023-10-08T01:53:36;4.85;;;2.33;;
10653;SDS011;5375;51.250;6.776;2023-10-08T01:56:03;4.15;;;2.78;;
10653;SDS011;5375;51.250;6.776;2023-10-08T01:58:29;3.50;;;2.50;;
10653;SDS011;5375;51.250;6.776;2023-10-08T02:00:55;4.82;;;2.60;;
10653;SDS011;5375;51.250;6.776;2023-10-08T02:03:25;5.43;;;2.22;;
10653;SDS011;5375;51.250;6.776;2023-10-08T02:05:52;4.10;;;2.63;;
10653;SDS011;5375;51.250;6.776;2023-10-08T02:08:18;4.20;;;2.50;;
10653;SDS011;5375;51.250;6.776;2023-10-08T02:10:45;4.68;;;2.65;;
10653;SDS011;5375;51.250;6.776;2023-10-08T02:13:14;3.88;;;2.72;;
10653;SDS011;5375;51.250;6.776;2023-10-08T02:15:43;4.50;;;2.50;;
10653;SDS011;5375;51.250;6.776;2023-10-08T02:18:09;5.88;;;2.75;;
10653;SDS011;5375;51.250;6.776;2023-10-08T02:20:35;4.28;;;2.55;;
10653;SDS011;5375;51.250;6.776;2023-10-08T02:23:01;3.60;;;2.45;;
10653;SDS011;5375;51.250;6.776;2023-10-08T02:25:27;4.78;;;2.67;;
10653;SDS011;5375;51.250;6.776;2023-10-08T02:28:11;5.25;;;2.70;;
10653;SDS011;5375;51.250;6.776;2023-10-08T02:30:40;4.63;;;2.45;;
10653;SDS011;5375;51.250;6.776;2023-10-08T02:33:06;3.90;;;2.80;;
10653;SDS011;5375;51.250;6.776;2023-10-08T02:35:39;3.45;;;1.92;;
10653;SDS011;5375;51.250;6.776;2023-10-08T02:38:07;4.60;;;2.75;;
10653;SDS011;5375;51.250;6.776;2023-10-08T02:40:34;5.40;;;2.60;;
10653;SDS011;5375;51.250;6.776;2023-10-08T02:43:01;5.50;;;2.53;;
10653;SDS011;5375;51.250;6.776;2023-10-08T02:45:31;4.18;;;2.58;;
10653;SDS011;5375;51.250;6.776;2023-10-08T02:47:57;5.07;;;2.33;;
10653;SDS011;5375;51.250;6.776;2023-10-08T02:50:23;3.95;;;2.53;;
10653;SDS011;5375;51.250;6.776;2023-10-08T02:52:49;3.25;;;2.30;;
10653;SDS011;5375;51.250;6.776;2023-10-08T02:55:15;4.68;;;2.67;;
10653;SDS011;5375;51.250;6.776;2023-10-08T02:57:55;3.63;;;2.65;;
10653;SDS011;5375;51.250;6.776;2023-10-08T03:00:21;4.00;;;2.40;;
10653;SDS011;5375;51.250;6.776;2023-10-08T03:02:54;4.95;;;2.70;;
10653;SDS011;5375;51.250;6.776;2023-10-08T03:05:20;3.23;;;2.37;;
10653;SDS011;5375;51.250;6.776;2023-10-08T03:07:47;4.25;;;2.70;;
10653;SDS011;5375;51.250;6.776;2023-10-08T03:10:16;4.88;;;2.97;;
10653;SDS011;5375;51.250;6.776;2023-10-08T03:12:43;3.97;;;2.47;;
10653;SDS011;5375;51.250;6.776;2023-10-08T03:15:11;3.60;;;2.47;;
10653;SDS011;5375;51.250;6.776;2023-10-08T03:17:38;5.38;;;2.90;;
10653;SDS011;5375;51.250;6.776;2023-10-08T03:20:13;5.18;;;2.90;;
10653;SDS011;5375;51.250;6.776;2023-10-08T03:23:02;4.57;;;2.45;;
10653;SDS011;5375;51.250;6.776;2023-10-08T03:25:32;3.47;;;2.40;;
10653;SDS011;5375;51.250;6.776;2023-10-08T03:28:06;5.65;;;2.45;;
10653;SDS011;5375;51.250;6.776;2023-10-08T03:30:33;5.57;;;2.55;;
10653;SDS011;5375;51.250;6.776;2023-10-08T03:33:24;4.72;;;2.30;;
10653;SDS011;5375;51.250;6.776;2023-10-08T03:35:52;5.30;;;2.58;;
10653;SDS011;5375;51.250;6.776;2023-10-08T03:38:19;5.90;;;2.60;;
10653;SDS011;5375;51.250;6.776;2023-10-08T03:41:04;3.97;;;2.88;;
10653;SDS011;5375;51.250;6.776;2023-10-08T03:43:32;14.40;;;2.75;;
10653;SDS011;5375;51.250;6.776;2023-10-08T03:46:12;4.32;;;2.30;;
10653;SDS011;5375;51.250;6.776;2023-10-08T03:48:44;4.53;;;2.40;;
10653;SDS011;5375;51.250;6.776;2023-10-08T03:51:11;8.85;;;2.60;;
10653;SDS011;5375;51.250;6.776;2023-10-08T03:53:38;5.03;;;2.70;;
10653;SDS011;5375;51.250;6.776;2023-10-08T03:56:23;8.05;;;2.42;;
10653;SDS011;5375;51.250;6.776;2023-10-08T03:58:49;5.28;;;2.50;;
10653;SDS011;5375;51.250;6.776;2023-10-08T04:01:19;3.70;;;2.38;;
10653;SDS011;5375;51.250;6.776;2023-10-08T04:03:45;5.40;;;2.60;;
10653;SDS011;5375;51.250;6.776;2023-10-08T04:06:20;3.67;;;2.50;;
10653;SDS011;5375;51.250;6.776;2023-10-08T04:09:00;3.72;;;2.45;;
10653;SDS011;5375;51.250;6.776;2023-10-08T04:11:35;5.15;;;2.50;;
10653;SDS011;5375;51.250;6.776;2023-10-08T04:14:19;4.93;;;2.63;;
10653;SDS011;5375;51.250;6.776;2023-10-08T04:16:46;5.95;;;2.63;;
10653;SDS011;5375;51.250;6.776;2023-10-08T04:19:16;11.23;;;2.60;;
10653;SDS011;5375;51.250;6.776;2023-10-08T04:21:43;5.72;;;2.50;;
10653;SDS011;5375;51.250;6.776;2023-10-08T04:24:09;4.38;;;2.67;;
10653;SDS011;5375;51.250;6.776;2023-10-08T04:26:35;3.63;;;2.25;;
10653;SDS011;5375;51.250;6.776;2023-10-08T04:29:05;4.45;;;2.65;;
10653;SDS011;5375;51.250;6.776;2023-10-08T04:31:34;5.32;;;2.78;;
10653;SDS011;5375;51.250;6.776;2023-10-08T04:34:11;6.70;;;2.53;;
10653;SDS011;5375;51.250;6.776;2023-10-08T04:36:43;4.30;;;2.53;;
10653;SDS011;5375;51.250;6.776;2023-10-08T04:39:18;3.42;;;2.25;;
10653;SDS011;5375;51.250;6.776;2023-10-08T04:41:48;3.78;;;2.58;;
10653;SDS011;5375;51.250;6.776;2023-10-08T04:44:19;5.05;;;2.70;;
10653;SDS011;5375;51.250;6.776;2023-10-08T04:46:47;4.32;;;2.20;;
10653;SDS011;5375;51.250;6.776;2023-10-08T04:49:17;4.03;;;2.38;;
10653;SDS011;5375;51.250;6.776;2023-10-08T04:51:56;4.35;;;2.58;;
10653;SDS011;5375;51.250;6.776;2023-10-08T04:54:25;3.83;;;2.65;;
10653;SDS011;5375;51.250;6.776;2023-10-08T04:57:01;3.25;;;2.20;;
10653;SDS011;5375;51.250;6.776;2023-10-08T04:59:31;4.95;;;2.50;;
10653;SDS011;5375;51.250;6.776;2023-10-08T05:02:00;5.93;;;2.50;;
10653;SDS011;5375;51.250;6.776;2023-10-08T05:04:41;5.55;;;2.60;;
10653;SDS011;5375;51.250;6.776;2023-10-08T05:07:30;4.78;;;2.80;;
10653;SDS011;5375;51.250;6.776;2023-10-08T05:10:25;6.13;;;2.70;;
10653;SDS011;5375;51.250;6.776;2023-10-08T05:12:54;5.03;;;2.55;;
10653;SDS011;5375;51.250;6.776;2023-10-08T05:15:27;6.45;;;2.58;;
10653;SDS011;5375;51.250;6.776;2023-10-08T05:18:02;4.75;;;2.53;;
10653;SDS011;5375;51.250;6.776;2023-10-08T05:20:44;5.07;;;2.60;;
10653;SDS011;5375;51.250;6.776;2023-10-08T05:23:13;5.63;;;2.58;;
10653;SDS011;5375;51.250;6.776;2023-10-08T05:25:57;5.35;;;2.88;;
10653;SDS011;5375;51.250;6.776;2023-10-08T05:28:37;3.47;;;2.35;;
10653;SDS011;5375;51.250;6.776;2023-10-08T05:31:21;4.15;;;2.50;;
10653;SDS011;5375;51.250;6.776;2023-10-08T05:34:08;4.95;;;2.97;;
10653;SDS011;5375;51.250;6.776;2023-10-08T05:36:48;4.15;;;2.50;;
10653;SDS011;5375;51.250;6.776;2023-10-08T05:39:29;5.15;;;2.50;;
10653;SDS011;5375;51.250;6.776;2023-10-08T05:42:05;6.25;;;2.80;;
10653;SDS011;5375;51.250;6.776;2023-10-08T05:44:50;8.10;;;2.60;;
10653;SDS011;5375;51.250;6.776;2023-10-08T05:47:34;3.55;;;2.60;;
10653;SDS011;5375;51.250;6.776;2023-10-08T05:50:01;4.75;;;2.47;;
10653;SDS011;5375;51.250;6.776;2023-10-08T05:52:45;3.90;;;2.30;;
10653;SDS011;5375;51.250;6.776;2023-10-08T05:55:30;3.88;;;2.72;;
10653;SDS011;5375;51.250;6.776;2023-10-08T05:58:05;3.70;;;2.45;;
10653;SDS011;5375;51.250;6.776;2023-10-08T06:00:44;3.72;;;2.50;;
10653;SDS011;5375;51.250;6.776;2023-10-08T06:03:19;4.65;;;2.42;;
10653;SDS011;5375;51.250;6.776;2023-10-08T06:06:07;3.70;;;2.60;;
10653;SDS011;5375;51.250;6.776;2023-10-08T06:08:37;2.80;;;2.30;;
10653;SDS011;5375;51.250;6.776;2023-10-08T06:11:14;4.65;;;2.67;;
10653;SDS011;5375;51.250;6.776;2023-10-08T06:14:08;4.30;;;2.40;;
10653;SDS011;5375;51.250;6.776;2023-10-08T06:16:53;7.45;;;2.97;;
10653;SDS011;5375;51.250;6.776;2023-10-08T06:19:42;5.03;;;2.45;;
10653;SDS011;5375;51.250;6.776;2023-10-08T06:22:08;4.35;;;2.80;;
10653;SDS011;5375;51.250;6.776;2023-10-08T06:24:34;3.60;;;2.53;;
10653;SDS011;5375;51.250;6.776;2023-10-08T06:27:03;3.78;;;2.70;;
10653;SDS011;5375;51.250;6.776;2023-10-08T06:29:31;4.00;;;2.50;;
10653;SDS011;5375;51.250;6.776;2023-10-08T06:31:57;4.00;;;2.50;;
10653;SDS011;5375;51.250;6.776;2023-10-08T06:34:27;3.60;;;2.35;;
10653;SDS011;5375;51.250;6.776;2023-10-08T06:36:53;5.40;;;2.88;;
10653;SDS011;5375;51.250;6.776;2023-10-08T06:39:20;4.63;;;2.55;;
10653;SDS011;5375;51.250;6.776;2023-10-08T06:41:51;4.88;;;2.70;;
10653;SDS011;5375;51.250;6.776;2023-10-08T06:44:17;4.20;;;2.85;;
10653;SDS011;5375;51.250;6.776;2023-10-08T06:46:43;6.10;;;2.35;;
10653;SDS011;5375;51.250;6.776;2023-10-08T06:49:09;4.35;;;2.70;;
10653;SDS011;5375;51.250;6.776;2023-10-08T06:51:39;4.10;;;2.40;;
10653;SDS011;5375;51.250;6.776;2023-10-08T06:54:06;4.55;;;2.65;;
10653;SDS011;5375;51.250;6.776;2023-10-08T06:56:35;4.35;;;2.50;;
10653;SDS011;5375;51.250;6.776;2023-10-08T06:59:01;3.97;;;2.83;;
10653;SDS011;5375;51.250;6.776;2023-10-08T07:01:28;5.85;;;2.95;;
10653;SDS011;5375;51.250;6.776;2023-10-08T07:04:06;6.18;;;2.80;;
10653;SDS011;5375;51.250;6.776;2023-10-08T07:06:37;5.43;;;2.90;;
10653;SDS011;5375;51.250;6.776;2023-10-08T07:09:05;5.20;;;2.60;;
10653;SDS011;5375;51.250;6.776;2023-10-08T07:11:32;5.28;;;2.50;;
10653;SDS011;5375;51.250;6.776;2023-10-08T07:14:00;4.03;;;2.78;;
10653;SDS011;5375;51.250;6.776;2023-10-08T07:16:29;4.18;;;2.70;;
10653;SDS011;5375;51.250;6.776;2023-10-08T07:18:55;3.97;;;2.40;;
10653;SDS011;5375;51.250;6.776;2023-10-08T07:21:27;3.97;;;2.58;;
10653;SDS011;5375;51.250;6.776;2023-10-08T07:23:57;4.88;;;2.70;;
10653;SDS011;5375;51.250;6.776;2023-10-08T07:26:27;4.05;;;2.65;;
10653;SDS011;5375;51.250;6.776;2023-10-08T07:29:06;4.65;;;2.55;;
10653;SDS011;5375;51.250;6.776;2023-10-08T07:31:36;4.40;;;2.65;;
10653;SDS011;5375;51.250;6.776;2023-10-08T07:34:06;3.78;;;2.65;;
10653;SDS011;5375;51.250;6.776;2023-10-08T07:36:43;5.43;;;2.92;;
10653;SDS011;5375;51.250;6.776;2023-10-08T07:39:09;3.95;;;2.30;;
10653;SDS011;5375;51.250;6.776;2023-10-08T07:41:54;4.57;;;2.58;;
10653;SDS011;5375;51.250;6.776;2023-10-08T07:44:21;4.35;;;2.50;;
10653;SDS011;5375;51.250;6.776;2023-10-08T07:46:48;5.22;;;2.65;;
10653;SDS011;5375;51.250;6.776;2023-10-08T07:49:14;3.50;;;2.45;;
10653;SDS011;5375;51.250;6.776;2023-10-08T07:51:40;5.68;;;2.63;;
10653;SDS011;5375;51.250;6.776;2023-10-08T07:54:06;3.58;;;2.58;;
10653;SDS011;5375;51.250;6.776;2023-10-08T07:56:41;6.57;;;2.80;;
10653;SDS011;5375;51.250;6.776;2023-10-08T07:59:07;7.05;;;2.70;;
10653;SDS011;5375;51.250;6.776;2023-10-08T08:01:34;4.15;;;2.65;;
10653;SDS011;5375;51.250;6.776;2023-10-08T08:04:00;5.63;;;2.63;;
10653;SDS011;5375;51.250;6.776;2023-10-08T08:06:26;4.13;;;2.70;;
10653;SDS011;5375;51.250;6.776;2023-10-08T08:08:52;3.38;;;2.65;;
10653;SDS011;5375;51.250;6.776;2023-10-08T08:11:18;4.05;;;2.65;;
10653;SDS011;5375;51.250;6.776;2023-10-08T08:13:44;3.65;;;2.40;;
10653;SDS011;5375;51.250;6.776;2023-10-08T08:16:11;4.32;;;2.80;;
10653;SDS011;5375;51.250;6.776;2023-10-08T08:18:51;5.63;;;2.53;;
10653;SDS011;5375;51.250;6.776;2023-10-08T08:21:20;5.72;;;2.45;;
10653;SDS011;5375;51.250;6.776;2023-10-08T08:23:48;4.35;;;2.50;;
10653;SDS011;5375;51.250;6.776;2023-10-08T08:28:52;3.70;;;2.58;;
10653;SDS011;5375;51.250;6.776;2023-10-08T08:31:19;4.25;;;2.40;;
10653;SDS011;5375;51.250;6.776;2023-10-08T08:33:45;3.55;;;2.47;;
10653;SDS011;5375;51.250;6.776;2023-10-08T08:36:28;5.07;;;2.92;;
10653;SDS011;5375;51.250;6.776;2023-10-08T08:38:54;4.28;;;2.35;;
10653;SDS011;5375;51.250;6.776;2023-10-08T08:41:21;3.53;;;2.50;;
10653;SDS011;5375;51.250;6.776;2023-10-08T08:43:51;8.40;;;2.42;;
10653;SDS011;5375;51.250;6.776;2023-10-08T08:46:33;7.28;;;2.95;;
10653;SDS011;5375;51.250;6.776;2023-10-08T08:49:02;5.65;;;2.70;;
10653;SDS011;5375;51.250;6.776;2023-10-08T08:51:29;6.32;;;2.40;;
10653;SDS011;5375;51.250;6.776;2023-10-08T08:53:55;5.78;;;3.00;;
10653;SDS011;5375;51.250;6.776;2023-10-08T08:56:24;5.35;;;2.92;;
10653;SDS011;5375;51.250;6.776;2023-10-08T08:58:51;3.97;;;2.35;;
10653;SDS011;5375;51.250;6.776;2023-10-08T09:01:17;3.78;;;2.42;;
10653;SDS011;5375;51.250;6.776;2023-10-08T09:03:44;4.47;;;2.72;;
10653;SDS011;5375;51.250;6.776;2023-10-08T09:06:14;4.68;;;2.58;;
10653;SDS011;5375;51.250;6.776;2023-10-08T09:08:40;3.75;;;2.58;;
10653;SDS011;5375;51.250;6.776;2023-10-08T09:11:14;3.33;;;2.22;;
10653;SDS011;5375;51.250;6.776;2023-10-08T09:13:40;6.13;;;2.42;;
10653;SDS011;5375;51.250;6.776;2023-10-08T09:16:08;3.97;;;2.50;;
10653;SDS011;5375;51.250;6.776;2023-10-08T09:18:34;3.95;;;2.53;;
10653;SDS011;5375;51.250;6.776;2023-10-08T09:21:07;3.88;;;2.60;;
10653;SDS011;5375;51.250;6.776;2023-10-08T09:23:39;3.17;;;2.30;;
10653;SDS011;5375;51.250;6.776;2023-10-08T09:26:09;5.45;;;2.65;;
10653;SDS011;5375;51.250;6.776;2023-10-08T09:28:36;3.55;;;2.50;;
10653;SDS011;5375;51.250;6.776;2023-10-08T09:31:03;3.42;;;2.20;;
10653;SDS011;5375;51.250;6.776;2023-10-08T09:33:31;4.63;;;2.72;;
10653;SDS011;5375;51.250;6.776;2023-10-08T09:35:58;3.42;;;2.40;;
10653;SDS011;5375;51.250;6.776;2023-10-08T09:38:27;4.15;;;2.38;;
10653;SDS011;5375;51.250;6.776;2023-10-08T09:40:55;4.68;;;2.70;;
10653;SDS011;5375;51.250;6.776;2023-10-08T09:43:22;4.35;;;2.35;;
10653;SDS011;5375;51.250;6.776;2023-10-08T09:45:52;5.03;;;2.25;;
10653;SDS011;5375;51.250;6.776;2023-10-08T09:48:19;6.00;;;2.60;;
10653;SDS011;5375;51.250;6.776;2023-10-08T09:50:46;4.40;;;2.60;;
10653;SDS011;5375;51.250;6.776;2023-10-08T09:53:13;3.63;;;2.28;;
10653;SDS011;5375;51.250;6.776;2023-10-08T09:56:07;5.03;;;2.58;;
10653;SDS011;5375;51.250;6.776;2023-10-08T09:58:30;3.75;;;2.42;;
10653;SDS011;5375;51.250;6.776;2023-10-08T10:00:56;5.72;;;2.55;;
10653;SDS011;5375;51.250;6.776;2023-10-08T10:03:24;4.10;;;2.58;;
10653;SDS011;5375;51.250;6.776;2023-10-08T10:05:51;5.35;;;2.80;;
10653;SDS011;5375;51.250;6.776;2023-10-08T10:08:18;4.97;;;3.05;;
10653;SDS011;5375;51.250;6.776;2023-10-08T10:10:45;6.57;;;3.10;;
10653;SDS011;5375;51.250;6.776;2023-10-08T10:13:13;8.88;;;3.25;;
10653;SDS011;5375;51.250;6.776;2023-10-08T10:15:41;8.18;;;3.22;;
10653;SDS011;5375;51.250;6.776;2023-10-08T10:20:40;11.05;;;3.78;;
10653;SDS011;5375;51.250;6.776;2023-10-08T10:25:56;8.13;;;3.83;;
10653;SDS011;5375;51.250;6.776;2023-10-08T10:28:23;11.63;;;3.47;;
10653;SDS011;5375;51.250;6.776;2023-10-08T10:30:50;12.48;;;3.72;;
10653;SDS011;5375;51.250;6.776;2023-10-08T10:33:17;10.38;;;3.97;;
10653;SDS011;5375;51.250;6.776;2023-10-08T10:35:48;12.82;;;4.03;;
10653;SDS011;5375;51.250;6.776;2023-10-08T10:38:18;12.27;;;3.92;;
10653;SDS011;5375;51.250;6.776;2023-10-08T10:40:48;14.77;;;3.95;;
10653;SDS011;5375;51.250;6.776;2023-10-08T10:43:25;10.02;;;4.00;;
10653;SDS011;5375;51.250;6.776;2023-10-08T10:46:00;10.20;;;3.53;;
10653;SDS011;5375;51.250;6.776;2023-10-08T10:48:46;9.32;;;4.22;;
10653;SDS011;5375;51.250;6.776;2023-10-08T10:51:30;12.70;;;3.83;;
10653;SDS011;5375;51.250;6.776;2023-10-08T10:53:56;12.02;;;3.70;;
10653;SDS011;5375;51.250;6.776;2023-10-08T10:56:25;15.48;;;4.60;;
10653;SDS011;5375;51.250;6.776;2023-10-08T10:59:01;13.10;;;4.75;;
10653;SDS011;5375;51.250;6.776;2023-10-08T11:01:43;14.70;;;4.30;;
10653;SDS011;5375;51.250;6.776;2023-10-08T11:04:12;16.05;;;4.95;;
10653;SDS011;5375;51.250;6.776;2023-10-08T11:06:43;15.43;;;4.30;;
10653;SDS011;5375;51.250;6.776;2023-10-08T11:09:10;11.88;;;3.95;;
10653;SDS011;5375;51.250;6.776;2023-10-08T11:11:39;12.13;;;4.45;;
10653;SDS011;5375;51.250;6.776;2023-10-08T11:14:10;13.65;;;4.55;;
10653;SDS011;5375;51.250;6.776;2023-10-08T11:16:42;14.75;;;4.82;;
10653;SDS011;5375;51.250;6.776;2023-10-08T11:19:08;13.80;;;4.65;;
10653;SDS011;5375;51.250;6.776;2023-10-08T11:24:29;10.70;;;4.72;;
10653;SDS011;5375;51.250;6.776;2023-10-08T11:26:58;14.40;;;4.75;;
10653;SDS011;5375;51.250;6.776;2023-10-08T11:29:46;14.30;;;5.20;;
10653;SDS011;5375;51.250;6.776;2023-10-08T11:32:13;14.23;;;5.43;;
10653;SDS011;5375;51.250;6.776;2023-10-08T11:34:47;12.48;;;4.30;;
10653;SDS011;5375;51.250;6.776;2023-10-08T11:37:15;13.63;;;5.45;;
10653;SDS011;5375;51.250;6.776;2023-10-08T11:39:51;12.48;;;5.25;;
10653;SDS011;5375;51.250;6.776;2023-10-08T11:42:18;12.38;;;4.47;;
10653;SDS011;5375;51.250;6.776;2023-10-08T11:44:56;16.55;;;5.35;;
10653;SDS011;5375;51.250;6.776;2023-10-08T11:47:43;13.65;;;4.60;;
10653;SDS011;5375;51.250;6.776;2023-10-08T11:50:11;12.32;;;4.85;;
10653;SDS011;5375;51.250;6.776;2023-10-08T11:52:41;12.77;;;4.78;;
10653;SDS011;5375;51.250;6.776;2023-10-08T11:55:08;17.35;;;5.00;;
10653;SDS011;5375;51.250;6.776;2023-10-08T11:57:35;15.40;;;4.55;;
10653;SDS011;5375;51.250;6.776;2023-10-08T12:00:04;14.32;;;4.93;;
10653;SDS011;5375;51.250;6.776;2023-10-08T12:02:50;15.23;;;5.20;;
10653;SDS011;5375;51.250;6.776;2023-10-08T12:05:19;14.48;;;4.75;;
10653;SDS011;5375;51.250;6.776;2023-10-08T12:07:52;14.50;;;5.20;;
10653;SDS011;5375;51.250;6.776;2023-10-08T12:10:22;12.30;;;4.70;;
10653;SDS011;5375;51.250;6.776;2023-10-08T12:12:52;12.95;;;5.13;;
10653;SDS011;5375;51.250;6.776;2023-10-08T12:15:21;12.68;;;4.95;;
10653;SDS011;5375;51.250;6.776;2023-10-08T12:17:51;17.42;;;5.20;;
10653;SDS011;5375;51.250;6.776;2023-10-08T12:20:36;14.90;;;5.43;;
10653;SDS011;5375;51.250;6.776;2023-10-08T12:23:05;14.48;;;5.10;;
10653;SDS011;5375;51.250;6.776;2023-10-08T12:25:31;14.40;;;5.18;;
10653;SDS011;5375;51.250;6.776;2023-10-08T12:28:00;20.00;;;5.13;;
10653;SDS011;5375;51.250;6.776;2023-10-08T12:30:29;14.73;;;5.07;;
10653;SDS011;5375;51.250;6.776;2023-10-08T12:33:06;11.73;;;4.95;;
10653;SDS011;5375;51.250;6.776;2023-10-08T12:35:32;14.63;;;5.25;;
10653;SDS011;5375;51.250;6.776;2023-10-08T12:37:58;16.02;;;5.57;;
10653;SDS011;5375;51.250;6.776;2023-10-08T12:40:28;14.82;;;5.60;;
10653;SDS011;5375;51.250;6.776;2023-10-08T12:43:07;14.35;;;5.38;;
10653;SDS011;5375;51.250;6.776;2023-10-08T12:45:33;15.63;;;4.75;;
10653;SDS011;5375;51.250;6.776;2023-10-08T12:48:01;15.13;;;4.93;;
10653;SDS011;5375;51.250;6.776;2023-10-08T12:50:30;13.95;;;5.20;;
10653;SDS011;5375;51.250;6.776;2023-10-08T12:53:10;15.73;;;5.43;;
10653;SDS011;5375;51.250;6.776;2023-10-08T12:55:37;14.95;;;5.30;;
10653;SDS011;5375;51.250;6.776;2023-10-08T12:58:06;13.65;;;5.38;;
10653;SDS011;5375;51.250;6.776;2023-10-08T13:00:36;16.80;;;5.15;;
10653;SDS011;5375;51.250;6.776;2023-10-08T13:03:17;14.85;;;5.25;;
10653;SDS011;5375;51.250;6.776;2023-10-08T13:05:48;13.73;;;5.03;;
10653;SDS011;5375;51.250;6.776;2023-10-08T13:08:17;13.23;;;5.35;;
10653;SDS011;5375;51.250;6.776;2023-10-08T13:10:44;12.05;;;5.38;;
10653;SDS011;5375;51.250;6.776;2023-10-08T13:13:10;13.35;;;5.10;;
10653;SDS011;5375;51.250;6.776;2023-10-08T13:15:37;16.98;;;5.38;;
10653;SDS011;5375;51.250;6.776;2023-10-08T13:18:06;16.35;;;5.90;;
10653;SDS011;5375;51.250;6.776;2023-10-08T13:20:32;13.50;;;5.20;;
10653;SDS011;5375;51.250;6.776;2023-10-08T13:23:02;14.13;;;5.22;;
10653;SDS011;5375;51.250;6.776;2023-10-08T13:25:29;12.65;;;5.03;;
10653;SDS011;5375;51.250;6.776;2023-10-08T13:27:58;13.82;;;5.30;;
10653;SDS011;5375;51.250;6.776;2023-10-08T13:30:25;13.65;;;5.35;;
10653;SDS011;5375;51.250;6.776;2023-10-08T13:32:52;12.60;;;5.07;;
10653;SDS011;5375;51.250;6.776;2023-10-08T13:35:18;12.52;;;5.40;;
10653;SDS011;5375;51.250;6.776;2023-10-08T13:37:45;14.40;;;5.78;;
10653;SDS011;5375;51.250;6.776;2023-10-08T13:40:13;14.15;;;5.10;;
10653;SDS011;5375;51.250;6.776;2023-10-08T13:42:41;13.30;;;5.63;;
10653;SDS011;5375;51.250;6.776;2023-10-08T13:45:07;16.15;;;5.72;;
10653;SDS011;5375;51.250;6.776;2023-10-08T13:47:34;12.18;;;4.70;;
10653;SDS011;5375;51.250;6.776;2023-10-08T13:50:02;15.45;;;5.82;;
10653;SDS011;5375;51.250;6.776;2023-10-08T13:52:35;16.20;;;5.47;;
10653;SDS011;5375;51.250;6.776;2023-10-08T13:55:04;11.93;;;5.28;;
10653;SDS011;5375;51.250;6.776;2023-10-08T13:57:31;11.20;;;5.03;;
10653;SDS011;5375;51.250;6.776;2023-10-08T13:59:58;14.30;;;5.68;;
10653;SDS011;5375;51.250;6.776;2023-10-08T14:02:25;11.15;;;5.20;;
10653;SDS011;5375;51.250;6.776;2023-10-08T14:04:53;13.18;;;5.30;;
10653;SDS011;5375;51.250;6.776;2023-10-08T14:07:19;12.57;;;5.30;;
10653;SDS011;5375;51.250;6.776;2023-10-08T14:09:46;11.93;;;5.25;;
10653;SDS011;5375;51.250;6.776;2023-10-08T14:12:12;13.00;;;4.82;;
10653;SDS011;5375;51.250;6.776;2023-10-08T14:14:42;12.63;;;5.25;;
10653;SDS011;5375;51.250;6.776;2023-10-08T14:17:13;12.98;;;5.50;;
10653;SDS011;5375;51.250;6.776;2023-10-08T14:20:02;13.50;;;5.28;;
10653;SDS011;5375;51.250;6.776;2023-10-08T14:22:37;12.63;;;5.25;;
10653;SDS011;5375;51.250;6.776;2023-10-08T14:25:09;14.13;;;5.28;;
10653;SDS011;5375;51.250;6.776;2023-10-08T14:27:39;11.88;;;5.40;;
10653;SDS011;5375;51.250;6.776;2023-10-08T14:30:08;13.95;;;5.40;;
10653;SDS011;5375;51.250;6.776;2023-10-08T14:32:45;12.53;;;5.40;;
10653;SDS011;5375;51.250;6.776;2023-10-08T14:35:12;9.93;;;4.97;;
10653;SDS011;5375;51.250;6.776;2023-10-08T14:37:56;13.82;;;5.10;;
10653;SDS011;5375;51.250;6.776;2023-10-08T14:40:41;10.07;;;5.15;;
10653;SDS011;5375;51.250;6.776;2023-10-08T14:43:27;12.23;;;4.95;;
10653;SDS011;5375;51.250;6.776;2023-10-08T14:46:09;11.65;;;5.10;;
10653;SDS011;5375;51.250;6.776;2023-10-08T14:48:43;12.30;;;5.32;;
10653;SDS011;5375;51.250;6.776;2023-10-08T14:51:13;10.68;;;5.47;;
10653;SDS011;5375;51.250;6.776;2023-10-08T14:53:44;13.45;;;5.78;;
10653;SDS011;5375;51.250;6.776;2023-10-08T14:56:10;10.57;;;5.40;;
10653;SDS011;5375;51.250;6.776;2023-10-08T14:58:37;14.20;;;5.30;;
10653;SDS011;5375;51.250;6.776;2023-10-08T15:01:06;11.40;;;5.10;;
10653;SDS011;5375;51.250;6.776;2023-10-08T15:03:32;14.10;;;5.55;;
10653;SDS011;5375;51.250;6.776;2023-10-08T15:06:01;11.15;;;5.03;;
10653;SDS011;5375;51.250;6.776;2023-10-08T15:08:29;13.32;;;5.53;;
10653;SDS011;5375;51.250;6.776;2023-10-08T15:10:57;12.90;;;5.88;;
10653;SDS011;5375;51.250;6.776;2023-10-08T15:13:25;12.15;;;5.95;;
10653;SDS011;5375;51.250;6.776;2023-10-08T15:15:52;9.63;;;5.30;;
10653;SDS011;5375;51.250;6.776;2023-10-08T15:18:19;12.07;;;5.18;;
10653;SDS011;5375;51.250;6.776;2023-10-08T15:20:47;11.15;;;5.05;;
10653;SDS011;5375;51.250;6.776;2023-10-08T15:23:14;9.77;;;5.28;;
10653;SDS011;5375;51.250;6.776;2023-10-08T15:25:42;9.02;;;4.68;;
10653;SDS011;5375;51.250;6.776;2023-10-08T15:28:08;8.75;;;5.07;;
10653;SDS011;5375;51.250;6.776;2023-10-08T15:30:34;11.85;;;5.60;;
10653;SDS011;5375;51.250;6.776;2023-10-08T15:33:00;11.30;;;5.70;;